Time;durP1;ratioP1;P1;durP2;ratioP2;P2;SDS_P1;SDS_P2;PMS_P1;PMS_P2;Temp;Humidity;BMP_temperature;BMP_pressure;BME280_temperature;BME280_humidity;BME280_pressure;Samples;Min_cycle;Max_cycle;Signal;HPM_P1;HPM_P2
2023/07/15 00:02:58;;;;;;;5.13;3.30;;;;;;;14.64;97.28;97578.16;6244318;28;20261;-40
2023/07/15 00:06:01;;;;;;;3.90;3.43;;;;;;;14.63;97.22;97575.72;6242255;28;20261;-40
2023/07/15 00:09:04;;;;;;;3.47;3.17;;;;;;;14.61;97.22;97583.25;6241388;28;20227;-40
2023/07/15 00:12:09;;;;;;;4.57;3.50;;;;;;;14.58;97.14;97578.41;6240775;28;20214;-40
2023/07/15 00:15:12;;;;;;;5.20;3.20;;;;;;;14.56;97.27;97578.69;6244187;28;20222;-40
2023/07/15 00:18:14;;;;;;;3.70;3.17;;;;;;;14.54;97.33;97588.91;6243649;28;20215;-40
2023/07/15 00:21:23;;;;;;;4.63;3.23;;;;;;;14.51;97.38;97585.94;6242272;28;20578;-41
2023/07/15 00:24:25;;;;;;;3.60;3.30;;;;;;;14.49;97.26;97583.53;6239290;28;20319;-40
2023/07/15 00:27:27;;;;;;;6.40;3.60;;;;;;;14.50;97.92;97578.97;6241531;28;20692;-40
2023/07/15 00:30:31;;;;;;;5.30;3.50;;;;;;;14.46;97.49;97581.34;6229696;28;20235;-40
2023/07/15 00:33:33;;;;;;;4.40;3.10;;;;;;;14.41;97.48;97578.69;6241390;28;20600;-40
2023/07/15 00:36:35;;;;;;;5.30;3.47;;;;;;;14.35;97.62;97585.13;6226683;28;20230;-40
2023/07/15 00:39:40;;;;;;;6.50;3.27;;;;;;;14.29;97.86;97587.00;6239808;28;20235;-40
2023/07/15 00:43:19;;;;;;;4.00;3.20;;;;;;;14.25;97.81;97572.53;6224335;28;20236;-40
2023/07/15 00:46:28;;;;;;;3.50;3.20;;;;;;;14.24;97.84;97576.28;6243408;28;20985;-40
2023/07/15 00:49:34;;;;;;;4.97;3.50;;;;;;;14.24;97.36;97564.75;6240726;28;20228;-40
2023/07/15 00:52:36;;;;;;;3.67;3.33;;;;;;;14.22;97.17;97566.88;6240287;28;20235;-40
2023/07/15 00:55:38;;;;;;;3.73;3.10;;;;;;;14.10;97.38;97561.81;6235170;28;20222;-39
2023/07/15 00:58:41;;;;;;;3.33;3.03;;;;;;;14.10;97.92;97564.47;6244530;28;20231;-40
2023/07/15 01:01:45;;;;;;;3.63;2.70;;;;;;;14.05;98.19;97567.97;6228551;28;20313;-40
2023/07/15 01:04:47;;;;;;;6.60;3.50;;;;;;;13.98;98.08;97564.72;6228734;28;20322;-40
2023/07/15 01:07:49;;;;;;;3.37;2.80;;;;;;;13.97;98.61;97563.13;6239682;28;20236;-40
2023/07/15 01:10:52;;;;;;;4.17;3.50;;;;;;;14.00;98.44;97569.84;6242841;28;20916;-40
2023/07/15 01:13:57;;;;;;;4.23;2.97;;;;;;;14.00;97.80;97562.59;6237037;28;20748;-42
2023/07/15 01:17:00;;;;;;;3.63;2.97;;;;;;;14.01;97.75;97566.88;6224052;28;20285;-40
2023/07/15 01:20:05;;;;;;;3.43;3.10;;;;;;;13.97;97.46;97555.09;6223031;28;20235;-40
2023/07/15 01:23:08;;;;;;;3.97;3.60;;;;;;;13.90;97.59;97566.06;6223279;28;20235;-39
2023/07/15 01:26:10;;;;;;;3.40;3.10;;;;;;;13.83;98.38;97556.66;6242320;28;20219;-40
2023/07/15 01:29:16;;;;;;;4.30;2.87;;;;;;;13.80;98.02;97558.03;6239807;28;20258;-41
2023/07/15 01:32:18;;;;;;;3.47;2.83;;;;;;;13.76;98.72;97559.63;6221601;28;20228;-40
2023/07/15 01:35:20;;;;;;;4.20;3.00;;;;;;;13.75;98.36;97554.53;6236721;28;20219;-40
2023/07/15 01:38:22;;;;;;;3.60;3.00;;;;;;;13.75;98.74;97559.88;6241123;28;20231;-40
2023/07/15 01:41:26;;;;;;;3.67;2.80;;;;;;;13.75;98.36;97549.19;6240870;28;20231;-41
2023/07/15 01:44:28;;;;;;;5.10;3.10;;;;;;;13.79;98.48;97555.59;6224393;28;20766;-40
2023/07/15 01:47:30;;;;;;;3.43;2.67;;;;;;;13.83;97.97;97556.66;6240905;28;20227;-41
2023/07/15 01:50:32;;;;;;;5.23;2.90;;;;;;;13.81;97.76;97561.50;6219135;28;20261;-42
2023/07/15 01:53:34;;;;;;;3.10;2.80;;;;;;;13.71;97.71;97554.25;6238188;28;20725;-40
2023/07/15 01:56:37;;;;;;;3.30;3.00;;;;;;;13.70;97.81;97558.00;6242863;28;20317;-40
2023/07/15 01:59:39;;;;;;;2.73;2.53;;;;;;;13.68;98.21;97557.44;6224287;28;20242;-41
2023/07/15 02:02:41;;;;;;;3.10;2.80;;;;;;;13.70;98.30;97557.19;6224473;28;20318;-41
2023/07/15 02:05:44;;;;;;;3.57;2.80;;;;;;;13.72;98.40;97552.38;6221510;28;20246;-41
2023/07/15 02:08:46;;;;;;;3.73;2.83;;;;;;;13.71;97.83;97551.56;6239020;28;20219;-41
2023/07/15 02:11:48;;;;;;;4.13;2.90;;;;;;;13.62;97.34;97545.94;6238862;28;20719;-40
2023/07/15 02:14:50;;;;;;;3.70;2.73;;;;;;;13.70;97.84;97558.00;6225711;28;20262;-40
2023/07/15 02:17:53;;;;;;;2.90;2.70;;;;;;;13.76;98.14;97564.16;6223790;28;20587;-41
2023/07/15 02:20:57;;;;;;;3.53;2.63;;;;;;;13.78;97.84;97556.66;6222491;28;20235;-41
2023/07/15 02:23:59;;;;;;;2.80;2.53;;;;;;;13.71;97.25;97558.81;6222569;28;20242;-41
2023/07/15 02:27:04;;;;;;;2.77;2.57;;;;;;;13.55;97.68;97549.94;6239435;28;20228;-41
2023/07/15 02:30:08;;;;;;;4.30;2.43;;;;;;;13.62;97.57;97571.91;6219869;28;20581;-40
2023/07/15 02:33:11;;;;;;;3.40;2.77;;;;;;;13.60;97.69;97574.84;6238153;28;20222;-40
2023/07/15 02:36:15;;;;;;;3.20;2.70;;;;;;;13.59;97.66;97573.22;6230967;28;20213;-41
2023/07/15 02:39:17;;;;;;;2.60;2.37;;;;;;;13.58;97.45;97579.63;6238266;28;20203;-43
2023/07/15 02:42:19;;;;;;;4.70;2.53;;;;;;;13.56;97.57;97573.75;6238590;28;20223;-40
2023/07/15 02:45:22;;;;;;;3.10;2.20;;;;;;;13.59;97.50;97580.44;6235729;28;20232;-41
2023/07/15 02:48:24;;;;;;;9.23;3.07;;;;;;;13.46;97.34;97564.91;6238648;28;20875;-40
2023/07/15 02:51:28;;;;;;;2.83;2.63;;;;;;;13.49;97.32;97578.53;6238511;28;20222;-40
2023/07/15 02:54:31;;;;;;;5.17;2.93;;;;;;;13.39;97.70;97573.94;6225258;28;20298;-41
2023/07/15 02:57:33;;;;;;;4.10;2.70;;;;;;;13.34;97.63;97576.59;6226492;28;20226;-40
2023/07/15 03:00:38;;;;;;;4.20;2.80;;;;;;;13.28;98.30;97572.31;6222229;28;20307;-40
2023/07/15 03:03:40;;;;;;;3.03;2.80;;;;;;;13.25;98.48;97575.53;6238483;28;20219;-40
2023/07/15 03:06:44;;;;;;;3.63;2.37;;;;;;;13.25;98.98;97574.69;6238407;28;20228;-40
2023/07/15 03:09:46;;;;;;;3.70;2.83;;;;;;;13.32;98.60;97583.31;6236185;28;20316;-40
2023/07/15 03:12:48;;;;;;;4.03;2.50;;;;;;;13.34;98.46;97581.16;6226466;28;20215;-40
2023/07/15 03:15:52;;;;;;;2.90;2.60;;;;;;;13.33;98.49;97580.34;6240252;28;20638;-40
2023/07/15 03:18:54;;;;;;;3.80;2.50;;;;;;;13.30;98.29;97582.75;6225553;28;20231;-40
2023/07/15 03:21:58;;;;;;;2.83;2.63;;;;;;;13.33;98.44;97583.03;6224633;28;20231;-40
2023/07/15 03:25:01;;;;;;;6.07;3.00;;;;;;;13.32;98.49;97577.94;6243612;28;20223;-41
2023/07/15 03:28:04;;;;;;;3.40;3.10;;;;;;;13.29;98.62;97578.47;6248429;28;20661;-40
2023/07/15 03:31:06;;;;;;;4.50;2.70;;;;;;;13.26;97.98;97581.69;6223055;28;20242;-40
2023/07/15 03:34:09;;;;;;;5.23;2.60;;;;;;;13.22;98.19;97584.06;6234590;28;20708;-41
2023/07/15 03:37:11;;;;;;;3.10;2.80;;;;;;;13.20;98.65;97580.00;6243278;28;20778;-40
2023/07/15 03:40:13;;;;;;;3.30;3.00;;;;;;;13.09;98.72;97566.56;6244131;28;20235;-40
2023/07/15 03:43:16;;;;;;;3.83;2.83;;;;;;;13.15;99.04;97573.59;6240853;28;20321;-40
2023/07/15 03:46:19;;;;;;;3.03;2.73;;;;;;;13.12;98.82;97584.78;6243251;28;20239;-42
2023/07/15 03:49:21;;;;;;;3.53;2.83;;;;;;;13.09;98.99;97585.28;6245805;28;20253;-41
2023/07/15 03:52:25;;;;;;;3.00;2.50;;;;;;;13.12;99.27;97584.78;6242242;28;20284;-40
2023/07/15 03:55:29;;;;;;;2.63;2.20;;;;;;;13.14;99.20;97593.34;6241839;28;20231;-40
2023/07/15 03:58:31;;;;;;;4.43;2.60;;;;;;;13.18;99.24;97588.28;6245521;28;20751;-40
2023/07/15 04:01:35;;;;;;;2.73;2.43;;;;;;;13.18;99.22;97599.78;6244125;28;20230;-40
2023/07/15 04:04:37;;;;;;;3.07;2.37;;;;;;;13.22;99.42;97605.47;6241580;28;20278;-40
2023/07/15 04:07:40;;;;;;;2.53;2.33;;;;;;;13.12;99.59;97587.47;6241019;28;20226;-40
2023/07/15 04:10:46;;;;;;;3.27;2.40;;;;;;;13.30;99.14;97615.69;6222126;28;20234;-40
2023/07/15 04:13:48;;;;;;;2.97;2.70;;;;;;;13.32;99.26;97615.41;6238984;28;20290;-40
2023/07/15 04:16:50;;;;;;;3.90;2.30;;;;;;;13.34;99.40;97608.72;6242386;28;20240;-41
2023/07/15 04:19:52;;;;;;;3.57;2.67;;;;;;;13.36;99.30;97619.19;6242615;28;20224;-40
2023/07/15 04:22:55;;;;;;;2.40;2.20;;;;;;;13.36;99.00;97617.31;6240835;28;20664;-41
2023/07/15 04:25:57;;;;;;;2.73;2.13;;;;;;;13.26;98.87;97608.44;6237719;28;20701;-41
2023/07/15 04:28:59;;;;;;;2.60;2.40;;;;;;;13.41;98.72;97616.53;6242023;28;20243;-40
2023/07/15 04:32:01;;;;;;;2.53;2.33;;;;;;;13.40;98.84;97626.44;6239441;28;20236;-40
2023/07/15 04:35:04;;;;;;;2.50;2.30;;;;;;;13.41;98.55;97619.19;6227079;28;20215;-40
2023/07/15 04:38:06;;;;;;;2.43;2.23;;;;;;;13.37;98.60;97612.75;6242323;28;20736;-41
2023/07/15 04:41:08;;;;;;;2.53;2.33;;;;;;;13.45;98.86;97620.28;6241780;28;20227;-41
2023/07/15 04:44:10;;;;;;;3.30;2.60;;;;;;;13.48;98.80;97621.63;6239806;28;20235;-41
2023/07/15 04:47:13;;;;;;;2.53;2.17;;;;;;;13.48;98.74;97632.31;6224564;28;20234;-41
2023/07/15 04:50:15;;;;;;;2.47;2.27;;;;;;;13.45;98.55;97633.66;6225238;28;20224;-41
2023/07/15 04:53:17;;;;;;;2.73;2.40;;;;;;;13.46;98.49;97643.31;6241651;28;20235;-40
2023/07/15 04:56:19;;;;;;;3.10;2.80;;;;;;;13.47;98.92;97646.78;6240518;28;20227;-41
2023/07/15 04:59:22;;;;;;;2.70;2.50;;;;;;;13.49;98.92;97641.97;6243520;28;20219;-40
2023/07/15 05:02:24;;;;;;;5.53;2.80;;;;;;;13.49;99.01;97641.97;6242795;28;20241;-41
2023/07/15 05:05:27;;;;;;;3.10;2.80;;;;;;;13.52;99.57;97650.28;6240747;28;20234;-41
2023/07/15 05:08:29;;;;;;;4.50;3.07;;;;;;;13.57;100.00;97652.19;6240612;28;20238;-41
2023/07/15 05:11:31;;;;;;;3.50;3.20;;;;;;;13.61;100.00;97647.91;6240548;28;20231;-41
2023/07/15 05:14:33;;;;;;;5.57;3.13;;;;;;;13.68;100.00;97649.25;6242073;28;20264;-41
2023/07/15 05:17:36;;;;;;;3.33;2.90;;;;;;;13.75;100.00;97649.03;6240564;28;20597;-41
2023/07/15 05:20:38;;;;;;;4.27;3.27;;;;;;;13.81;100.00;97652.53;6237785;28;20238;-41
2023/07/15 05:23:40;;;;;;;2.77;2.57;;;;;;;13.80;100.00;97635.66;6242066;28;20573;-40
2023/07/15 05:26:42;;;;;;;3.20;2.90;;;;;;;13.92;100.00;97649.63;6243649;28;20751;-40
2023/07/15 05:29:45;;;;;;;2.80;2.60;;;;;;;14.00;100.00;97658.22;6239768;28;20235;-41
2023/07/15 05:32:47;;;;;;;2.90;2.70;;;;;;;14.07;100.00;97664.13;6241139;28;20235;-41
2023/07/15 05:35:49;;;;;;;3.00;2.80;;;;;;;14.14;100.00;97676.19;6237493;28;20755;-41
2023/07/15 05:38:51;;;;;;;3.00;2.77;;;;;;;14.13;100.00;97653.13;6240462;28;20234;-41
2023/07/15 05:41:54;;;;;;;4.00;2.97;;;;;;;14.31;100.00;97670.59;6239800;28;20228;-41
2023/07/15 05:44:56;;;;;;;2.90;2.70;;;;;;;14.41;100.00;97667.13;6242270;28;20323;-41
2023/07/15 05:47:58;;;;;;;3.20;2.90;;;;;;;14.50;100.00;97668.25;6244529;28;20230;-41
2023/07/15 05:51:00;;;;;;;4.00;3.03;;;;;;;14.62;100.00;97670.66;6241869;28;20233;-43
2023/07/15 05:54:03;;;;;;;3.87;3.47;;;;;;;14.71;100.00;97675.22;6241527;28;20234;-41
2023/07/15 05:57:06;;;;;;;3.33;3.03;;;;;;;14.89;100.00;97673.06;6222817;28;20247;-42
2023/07/15 06:00:11;;;;;;;3.43;2.80;;;;;;;15.03;100.00;97676.00;6241327;28;20640;-41
2023/07/15 06:03:14;;;;;;;4.43;3.37;;;;;;;15.11;100.00;97665.50;6235383;28;20220;-41
2023/07/15 06:06:16;;;;;;;3.43;3.13;;;;;;;15.26;100.00;97666.56;6239897;28;20239;-41
2023/07/15 06:09:18;;;;;;;2.93;2.70;;;;;;;15.41;100.00;97675.38;6238512;28;20240;-41
2023/07/15 06:12:20;;;;;;;3.17;2.87;;;;;;;15.54;100.00;97676.69;6238390;28;20657;-41
2023/07/15 06:15:22;;;;;;;3.40;3.10;;;;;;;15.69;100.00;97683.91;6239007;28;20720;-42
2023/07/15 06:18:24;;;;;;;3.00;2.70;;;;;;;15.83;99.69;97684.13;6242010;28;20704;-41
2023/07/15 06:21:27;;;;;;;3.57;3.27;;;;;;;15.96;99.57;97678.97;6240423;28;20313;-41
2023/07/15 06:24:29;;;;;;;2.80;2.60;;;;;;;16.13;99.40;97681.28;6240230;28;20238;-41
2023/07/15 06:27:31;;;;;;;3.00;2.63;;;;;;;16.33;99.15;97676.88;6237652;28;20313;-41
2023/07/15 06:30:33;;;;;;;2.60;2.40;;;;;;;16.42;98.47;97661.75;6239163;28;20577;-42
2023/07/15 06:33:36;;;;;;;2.33;2.13;;;;;;;16.80;98.07;97681.69;6233923;28;20243;-41
2023/07/15 06:36:38;;;;;;;3.50;3.20;;;;;;;17.13;97.43;97685.41;6241835;28;20235;-41
2023/07/15 06:39:40;;;;;;;3.67;2.50;;;;;;;17.43;95.75;97686.19;6231957;28;20293;-56
2023/07/15 06:42:44;;;;;;;3.23;2.47;;;;;;;17.67;94.64;97688.88;6236840;28;20939;-58
2023/07/15 06:45:46;;;;;;;3.27;2.40;;;;;;;17.94;93.15;97697.22;6222674;28;20245;-58
2023/07/15 06:48:48;;;;;;;3.47;2.47;;;;;;;18.14;91.53;97690.75;6226503;28;20241;-58
2023/07/15 06:51:50;;;;;;;4.73;2.20;;;;;;;18.37;90.42;97690.97;6241033;28;20339;-58
2023/07/15 06:54:52;;;;;;;2.43;2.23;;;;;;;18.60;89.19;97700.88;6240862;28;20224;-58
2023/07/15 06:57:54;;;;;;;2.87;2.63;;;;;;;18.77;88.35;97687.69;6230898;28;20231;-58
2023/07/15 07:00:57;;;;;;;1.97;1.80;;;;;;;19.03;87.38;97684.56;6224353;28;20231;-59
2023/07/15 07:03:59;;;;;;;2.00;1.80;;;;;;;19.25;86.21;97697.41;6245394;28;20235;-58
2023/07/15 07:07:02;;;;;;;2.20;2.00;;;;;;;19.44;84.97;97694.66;6242465;28;20246;-58
2023/07/15 07:10:05;;;;;;;2.27;2.07;;;;;;;19.58;83.64;97695.47;6240938;28;20236;-58
2023/07/15 07:13:07;;;;;;;2.13;1.90;;;;;;;19.73;83.54;97695.19;6247581;28;20234;-58
2023/07/15 07:16:10;;;;;;;2.30;2.10;;;;;;;19.86;82.44;97692.78;6243397;28;20257;-58
2023/07/15 07:19:12;;;;;;;2.27;2.07;;;;;;;20.02;81.77;97686.75;6248502;28;20292;-58
2023/07/15 07:22:14;;;;;;;2.43;2.23;;;;;;;20.19;81.79;97696.13;6240941;28;20238;-58
2023/07/15 07:25:16;;;;;;;2.17;2.00;;;;;;;20.34;81.58;97699.34;6244756;28;20328;-58
2023/07/15 07:28:36;;;;;;;2.90;2.40;;;;;;;20.50;80.55;97697.09;6245385;28;20313;-59
2023/07/15 07:31:38;;;;;;;3.00;2.43;;;;;;;20.67;79.27;97693.72;6245948;28;20779;-56
2023/07/15 07:34:41;;;;;;;4.17;2.60;;;;;;;20.82;78.99;97693.34;6243468;28;20239;-58
2023/07/15 07:37:43;;;;;;;2.90;2.60;;;;;;;20.99;79.37;97689.97;6240132;28;20223;-59
2023/07/15 07:40:48;;;;;;;4.03;3.00;;;;;;;21.15;79.23;97697.72;6242073;28;20236;-59
2023/07/15 07:43:50;;;;;;;3.77;2.70;;;;;;;21.18;77.63;97673.53;6244582;28;20355;-57
2023/07/15 07:46:52;;;;;;;3.03;2.70;;;;;;;21.52;74.74;97688.34;6246423;28;20314;-58
2023/07/15 07:49:55;;;;;;;3.10;2.40;;;;;;;21.81;74.62;97704.88;6244469;28;20222;-58
2023/07/15 07:52:57;;;;;;;2.93;2.73;;;;;;;21.94;74.77;97703.19;6245188;28;20223;-57
2023/07/15 07:55:59;;;;;;;4.10;3.10;;;;;;;22.07;73.73;97704.97;6243688;28;20246;-56
2023/07/15 07:59:02;;;;;;;4.17;3.00;;;;;;;22.46;65.86;97710.63;6233443;28;20222;-57
2023/07/15 08:02:04;;;;;;;3.30;2.83;;;;;;;22.61;66.68;97715.59;6242055;28;20227;-56
2023/07/15 08:05:06;;;;;;;4.53;3.13;;;;;;;22.85;61.28;97717.81;6227254;28;20241;-56
2023/07/15 08:08:10;;;;;;;3.00;2.80;;;;;;;23.07;59.51;97720.41;6241554;28;20727;-56
2023/07/15 08:11:14;;;;;;;3.77;2.67;;;;;;;23.17;60.96;97719.28;6243672;28;20320;-58
2023/07/15 08:14:17;;;;;;;3.23;2.80;;;;;;;23.25;63.69;97723.91;6242966;28;20298;-57
2023/07/15 08:17:20;;;;;;;3.63;3.00;;;;;;;23.32;64.58;97723.41;6240357;28;20600;-57
2023/07/15 08:20:22;;;;;;;3.75;3.00;;;;;;;23.28;65.14;97723.22;6244715;28;20227;-57
2023/07/15 08:23:24;;;;;;;4.13;3.10;;;;;;;23.31;64.91;97730.75;6239698;28;20269;-56
2023/07/15 08:26:26;;;;;;;4.28;2.63;;;;;;;23.60;56.88;97724.59;6244860;28;20231;-57
2023/07/15 08:29:29;;;;;;;5.10;2.85;;;;;;;23.68;61.47;97733.84;6237250;28;20239;-57
2023/07/15 08:32:31;;;;;;;3.25;2.70;;;;;;;23.72;61.45;97734.00;6243280;28;20692;-57
2023/07/15 08:35:34;;;;;;;3.03;2.53;;;;;;;23.81;58.66;97737.50;6241506;28;20245;-57
2023/07/15 08:38:36;;;;;;;3.33;2.47;;;;;;;23.92;55.28;97734.06;6241819;28;20230;-57
2023/07/15 08:41:39;;;;;;;3.20;2.80;;;;;;;23.97;58.73;97738.53;6241206;28;20369;-58
2023/07/15 08:44:41;;;;;;;4.57;2.78;;;;;;;23.97;60.84;97737.75;6243052;28;20227;-57
2023/07/15 08:47:44;;;;;;;3.55;2.63;;;;;;;24.04;57.11;97738.00;6236698;28;20242;-57
2023/07/15 08:50:48;;;;;;;2.70;2.00;;;;;;;24.19;54.84;97735.53;6230992;28;20236;-57
2023/07/15 08:53:52;;;;;;;3.50;2.72;;;;;;;24.25;55.48;97738.06;6229848;28;20249;-57
2023/07/15 08:56:55;;;;;;;3.60;2.30;;;;;;;24.32;56.94;97728.25;6238299;28;20324;-57
2023/07/15 08:59:58;;;;;;;3.30;2.67;;;;;;;24.41;54.81;97734.47;6243229;28;20239;-58
2023/07/15 09:03:03;;;;;;;2.97;2.50;;;;;;;24.48;54.65;97724.97;6235039;28;20593;-57
2023/07/15 09:06:06;;;;;;;3.22;2.50;;;;;;;24.59;51.54;97723.47;6218839;28;20236;-54
2023/07/15 09:09:08;;;;;;;2.83;2.60;;;;;;;24.89;52.35;97729.63;6242208;28;20218;-57
2023/07/15 09:12:11;;;;;;;4.75;2.15;;;;;;;25.07;52.22;97731.06;6243937;28;20629;-57
2023/07/15 09:15:14;;;;;;;3.10;2.30;;;;;;;25.13;50.34;97713.38;6219728;28;20212;-58
2023/07/15 09:18:16;;;;;;;2.63;2.30;;;;;;;25.20;52.80;97732.72;6239102;28;20292;-57
2023/07/15 09:21:19;;;;;;;3.00;2.05;;;;;;;25.20;50.39;97731.91;6238663;28;20220;-58
2023/07/15 09:24:22;;;;;;;2.60;2.25;;;;;;;25.23;51.45;97735.91;6241326;28;20243;-57
2023/07/15 09:27:26;;;;;;;2.92;2.50;;;;;;;25.34;49.39;97726.97;6215158;28;20319;-57
2023/07/15 09:30:28;;;;;;;2.95;2.22;;;;;;;25.41;52.81;97731.84;6242195;28;21171;-57
2023/07/15 09:33:34;;;;;;;2.75;2.30;;;;;;;25.41;51.22;97732.66;6242021;28;20235;-58
2023/07/15 09:36:36;;;;;;;3.25;2.28;;;;;;;25.46;51.88;97734.38;6242798;28;20289;-57
2023/07/15 09:39:38;;;;;;;2.33;2.13;;;;;;;25.45;54.61;97728.13;6245708;28;20219;-58
2023/07/15 09:42:52;;;;;;;5.00;2.75;;;;;;;25.48;50.70;97726.66;6244593;28;20230;-58
2023/07/15 09:45:55;;;;;;;3.28;2.20;;;;;;;25.49;56.14;97730.97;6244477;28;20760;-57
2023/07/15 09:48:57;;;;;;;2.50;2.30;;;;;;;25.41;50.81;97710.81;6239364;28;20223;-57
2023/07/15 09:52:01;;;;;;;2.13;1.92;;;;;;;25.65;52.04;97726.44;6244118;28;20222;-56
2023/07/15 09:55:04;;;;;;;3.80;2.47;;;;;;;25.81;50.82;97726.59;6239858;28;20238;-57
2023/07/15 09:58:15;;;;;;;2.28;2.10;;;;;;;25.86;54.64;97718.22;6243085;28;20231;-57
2023/07/15 10:01:33;;;;;;;3.95;2.58;;;;;;;25.88;56.43;97718.66;6243744;28;20242;-57
2023/07/15 10:04:45;;;;;;;1.80;1.70;;;;;;;25.93;44.32;97717.63;6242963;28;20648;-57
2023/07/15 10:07:50;;;;;;;2.75;2.15;;;;;;;26.07;44.31;97720.03;6237147;28;20651;-58
2023/07/15 10:10:53;;;;;;;3.08;1.92;;;;;;;26.20;45.74;97719.66;6240117;28;20370;-58
2023/07/15 10:13:56;;;;;;;2.42;2.22;;;;;;;26.32;44.73;97737.97;6237221;28;20232;-58
2023/07/15 10:17:15;;;;;;;2.38;2.15;;;;;;;26.40;44.18;97728.88;6240196;28;20759;-58
2023/07/15 10:20:17;;;;;;;2.53;2.33;;;;;;;26.54;44.59;97724.97;6243158;28;20231;-57
2023/07/15 10:23:26;;;;;;;2.60;2.40;;;;;;;26.60;46.93;97727.16;6244929;28;20357;-57
2023/07/15 10:26:31;;;;;;;3.60;2.05;;;;;;;26.58;48.07;97717.69;6242916;28;20223;-58
2023/07/15 10:29:33;;;;;;;3.65;2.13;;;;;;;26.62;45.60;97715.84;6244304;28;20315;-58
2023/07/15 10:32:36;;;;;;;2.33;1.98;;;;;;;26.72;45.95;97712.63;6243401;28;20233;-58
2023/07/15 10:35:41;;;;;;;2.60;2.10;;;;;;;26.77;47.60;97717.84;6228210;28;20295;-57
2023/07/15 10:38:58;;;;;;;2.65;2.28;;;;;;;26.83;52.56;97707.47;6242996;28;20263;-57
2023/07/15 10:42:16;;;;;;;2.20;2.00;;;;;;;26.85;43.59;97707.94;6242149;28;20259;-57
2023/07/15 10:45:18;;;;;;;2.17;1.92;;;;;;;26.92;44.70;97708.13;6243527;28;20272;-57
2023/07/15 10:48:22;;;;;;;1.92;1.83;;;;;;;27.17;43.79;97708.81;5342479;28;10000851;-57
2023/07/15 10:51:24;;;;;;;3.10;2.35;;;;;;;27.28;44.48;97704.44;6170494;28;20225;-58
2023/07/15 10:54:29;;;;;;;5.07;1.88;;;;;;;27.48;42.48;97702.59;6174774;28;20268;-58
2023/07/15 10:57:36;;;;;;;3.72;2.60;;;;;;;27.64;42.65;97702.63;6171021;28;20372;-56
2023/07/15 11:01:12;;;;;;;2.60;2.20;;;;;;;27.57;42.04;97696.94;6172770;28;20264;-58
2023/07/15 11:04:19;;;;;;;3.05;1.90;;;;;;;27.58;42.93;97682.91;6171075;28;20237;-57
2023/07/15 11:07:22;;;;;;;3.88;2.30;;;;;;;27.86;44.00;97690.25;6172150;28;20249;-58
2023/07/15 11:10:32;;;;;;;2.63;2.13;;;;;;;27.96;44.70;97696.00;6172266;28;20241;-57
2023/07/15 11:13:36;;;;;;;9.23;2.42;;;;;;;28.07;41.72;97687.22;6171922;28;20609;-58
2023/07/15 11:16:39;;;;;;;3.58;2.00;;;;;;;28.00;43.64;97677.69;6174303;28;20233;-58
2023/07/15 11:19:42;;;;;;;2.83;2.10;;;;;;;28.01;45.25;97689.44;6172819;28;20372;-58
2023/07/15 11:22:44;;;;;;;2.47;2.28;;;;;;;28.04;44.82;97688.75;6175362;28;20233;-58
2023/07/15 11:25:46;;;;;;;3.17;2.47;;;;;;;28.02;44.77;97660.91;6171424;28;20233;-55
2023/07/15 11:28:50;;;;;;;2.47;2.22;;;;;;;28.12;43.39;97679.53;6168850;28;20235;-58
2023/07/15 11:31:56;;;;;;;6.63;2.40;;;;;;;28.14;44.40;97662.75;6168870;28;20233;-55
2023/07/15 11:35:10;;;;;;;5.38;2.58;;;;;;;28.38;44.79;97673.50;6170156;28;20222;-57
2023/07/15 11:38:15;;;;;;;2.33;1.95;;;;;;;28.50;44.27;97661.59;6176398;28;20259;-58
2023/07/15 11:41:19;;;;;;;6.45;2.40;;;;;;;28.50;43.14;97648.66;6175321;28;20234;-57
2023/07/15 11:44:25;;;;;;;3.08;2.40;;;;;;;28.85;44.78;97664.25;6170407;28;20226;-58
2023/07/15 11:47:29;;;;;;;2.38;2.17;;;;;;;28.89;43.06;97650.59;6172368;28;20226;-58
2023/07/15 11:50:35;;;;;;;2.85;2.50;;;;;;;28.97;43.50;97647.69;6168462;28;20729;-58
2023/07/15 11:53:41;;;;;;;2.58;2.38;;;;;;;28.97;44.47;97635.91;6168586;28;20229;-58
2023/07/15 11:56:46;;;;;;;2.20;2.00;;;;;;;29.03;44.73;97637.19;6168134;28;20545;-58
2023/07/15 11:59:51;;;;;;;2.50;2.22;;;;;;;29.08;42.54;97633.34;6171456;28;20241;-58
2023/07/15 12:02:57;;;;;;;4.57;2.47;;;;;;;29.11;44.05;97607.91;6177530;28;20268;-58
2023/07/15 12:06:02;;;;;;;2.58;2.00;;;;;;;29.39;44.80;97622.13;6169338;28;20233;-58
2023/07/15 12:09:10;;;;;;;3.10;2.20;;;;;;;29.40;47.15;97623.72;6170854;28;20391;-58
2023/07/15 12:12:14;;;;;;;4.03;2.50;;;;;;;29.44;44.69;97613.59;6168492;28;20225;-58
2023/07/15 12:15:21;;;;;;;5.10;2.55;;;;;;;29.49;42.55;97620.72;6163469;28;20744;-58
2023/07/15 12:18:23;;;;;;;3.17;1.95;;;;;;;29.62;42.51;97605.66;6171731;28;20237;-58
2023/07/15 12:21:26;;;;;;;3.88;2.42;;;;;;;29.80;41.63;97605.91;6170913;28;20694;-58
2023/07/15 12:24:28;;;;;;;2.78;2.45;;;;;;;29.79;43.11;97596.09;6166609;28;20233;-59
2023/07/15 12:27:32;;;;;;;5.55;2.10;;;;;;;29.91;41.15;97606.88;6168875;28;20817;-58
2023/07/15 12:30:34;;;;;;;3.08;2.40;;;;;;;29.85;41.99;97605.59;6170021;28;20244;-58
2023/07/15 12:33:36;;;;;;;3.28;2.15;;;;;;;29.89;40.41;97589.19;6166243;28;20221;-58
2023/07/15 12:36:38;;;;;;;2.95;2.30;;;;;;;29.93;40.01;97596.31;6164393;28;20805;-58
2023/07/15 12:39:40;;;;;;;3.30;2.00;;;;;;;30.06;40.11;97591.38;6170894;28;20229;-58
2023/07/15 12:42:43;;;;;;;2.63;1.95;;;;;;;30.05;40.92;97587.06;6166437;28;20229;-58
2023/07/15 12:45:46;;;;;;;2.33;2.13;;;;;;;29.97;41.97;97572.44;6169163;28;20241;-58
2023/07/15 12:48:50;;;;;;;3.28;1.98;;;;;;;29.93;41.36;97570.78;6166111;28;20245;-58
2023/07/15 12:51:52;;;;;;;2.47;2.10;;;;;;;29.68;42.12;97559.47;6165664;28;21023;-58
2023/07/15 12:54:55;;;;;;;2.63;2.25;;;;;;;30.10;40.98;97570.25;6171907;28;20780;-58
2023/07/15 12:57:57;;;;;;;2.03;1.88;;;;;;;30.08;41.26;97569.81;6167637;28;20253;-58
2023/07/15 13:01:00;;;;;;;2.55;2.28;;;;;;;30.05;43.75;97565.88;6172003;28;20233;-58
2023/07/15 13:04:02;;;;;;;2.97;2.20;;;;;;;29.99;43.03;97559.09;6168013;28;20240;-58
2023/07/15 13:07:05;;;;;;;1.90;1.80;;;;;;;29.91;43.28;97556.66;6168469;28;20237;-58
2023/07/15 13:10:07;;;;;;;2.53;2.08;;;;;;;29.88;43.73;97560.91;6167614;28;20233;-58
2023/07/15 13:13:12;;;;;;;3.22;2.22;;;;;;;30.00;42.32;97546.97;6171981;28;20245;-58
2023/07/15 13:16:15;;;;;;;2.47;2.20;;;;;;;29.99;44.22;97548.13;6184392;28;20232;-58
2023/07/15 13:19:18;;;;;;;2.92;1.80;;;;;;;29.98;43.66;97548.50;6193013;28;20244;-59
2023/07/15 13:22:21;;;;;;;2.80;2.50;;;;;;;29.85;43.36;97530.66;6190768;28;20360;-58
2023/07/15 13:25:23;;;;;;;5.85;2.33;;;;;;;29.91;42.99;97535.47;6192343;28;20272;-58
2023/07/15 13:28:25;;;;;;;2.75;2.55;;;;;;;29.89;42.64;97529.53;6184156;28;20244;-59
2023/07/15 13:31:28;;;;;;;3.55;2.47;;;;;;;29.92;41.72;97520.56;6192215;28;20319;-59
2023/07/15 13:35:09;;;;;;;3.13;2.25;;;;;;;29.98;43.44;97523.78;6175562;28;20241;-59
2023/07/15 13:38:14;;;;;;;2.42;2.00;;;;;;;29.97;41.75;97522.97;6174654;28;20228;-58
2023/07/15 13:41:17;;;;;;;3.28;2.17;;;;;;;30.02;41.68;97519.91;6190485;28;20295;-58
2023/07/15 13:44:19;;;;;;;3.83;2.20;;;;;;;30.03;42.94;97520.69;6192693;28;20229;-59
2023/07/15 13:47:22;;;;;;;2.58;2.30;;;;;;;30.16;42.51;97516.56;6195049;28;20233;-58
2023/07/15 13:50:26;;;;;;;2.78;2.30;;;;;;;30.07;44.72;97516.81;6191747;28;20612;-58
2023/07/15 13:53:29;;;;;;;3.20;2.33;;;;;;;30.02;43.29;97508.91;6191218;28;20220;-58
2023/07/15 13:56:33;;;;;;;2.47;2.08;;;;;;;30.04;44.03;97498.34;6191355;28;20228;-58
2023/07/15 13:59:36;;;;;;;2.20;2.00;;;;;;;29.98;42.94;97507.28;6192581;28;20228;-58
2023/07/15 14:02:44;;;;;;;2.25;2.05;;;;;;;29.95;43.57;97497.03;6189713;28;20232;-58
2023/07/15 14:05:52;;;;;;;3.30;2.35;;;;;;;30.03;41.79;97490.47;6194011;28;20237;-58
2023/07/15 14:08:54;;;;;;;2.80;2.60;;;;;;;30.03;42.82;97505.00;6191295;28;20240;-58
2023/07/15 14:12:01;;;;;;;3.70;1.95;;;;;;;30.05;43.01;97494.44;6189283;28;20232;-58
2023/07/15 14:15:05;;;;;;;2.65;2.20;;;;;;;30.10;43.25;97490.56;6188848;28;20225;-58
2023/07/15 14:18:09;;;;;;;2.95;2.30;;;;;;;30.11;44.62;97480.38;6186534;28;20236;-57
2023/07/15 14:21:11;;;;;;;3.58;2.25;;;;;;;30.22;43.02;97462.84;6193341;28;20558;-58
2023/07/15 14:24:14;;;;;;;3.05;2.10;;;;;;;30.32;43.27;97473.16;6188843;28;20212;-58